Flight Track Log - Related Links

Times and Time Zones

All times are in EDT time to prevent confusion due to time zone crossing. See the SWA920 flight status page for this flight to view local times or setup timezone preferences in your user account.


Time Position Orientation Groundspeed Altitude Reporting Facility
EDT Latitude Longitude Course Direction KTS MPH feet Rate Location/Type
Tue 12:43:31 PM 42.9167 -71.4167 200° South 143 165 1,100  Level KA90
Tue 12:44:13 PM 42.8833 -71.4333 200° South 189 217 2,200 1,791 Climbing KA90
Tue 12:44:38 PM 42.8672 -71.4572 227° Southwest 224 258 3,100 2,753 Climbing Boston Center
Tue 12:45:38 PM 42.8742 -71.5450 276° West 207 238 6,100 2,950 Climbing Boston Center
Tue 12:46:38 PM 42.8956 -71.6294 289° West 228 262 9,000 2,750 Climbing Boston Center
Tue 12:47:38 PM 42.9047 -71.7569 276° West 299 344 11,600 2,850 Climbing Boston Center
Tue 12:48:38 PM 42.9139 -71.8758 276° West 343 395 14,700 3,200 Climbing Boston Center
Tue 12:49:38 PM 42.9269 -72.0289 277° West 363 418 18,000 3,150 Climbing Boston Center
Tue 12:50:38 PM 42.9378 -72.1736 276° West 377 434 21,000 2,650 Climbing Boston Center
Tue 12:51:38 PM 42.9525 -72.3097 278° West 396 456 23,300 2,400 Climbing Boston Center
Tue 12:52:38 PM 42.9653 -72.4628 277° West 406 467 25,800 2,350 Climbing Boston Center
Tue 12:53:38 PM 42.9733 -72.6244 274° West 418 481 28,000 2,100 Climbing Boston Center
Tue 12:54:38 PM 42.9792 -72.7892 273° West 425 489 30,000 2,050 Climbing Boston Center
Tue 12:55:38 PM 42.9892 -72.9539 275° West 437 503 32,100 2,300 Climbing Boston Center
Tue 12:56:38 PM 43.0069 -73.1328 278° West 442 509 34,600 2,091 Climbing Boston Center
Tue 12:57:50 PM 43.0158 -73.3261 274° West 437 503 36,700 1,364 Climbing Boston Center
Tue 12:58:50 PM 43.0231 -73.4822 274° West 431 496 37,600 950 Climbing Boston Center
Tue 12:59:50 PM 43.0339 -73.6472 275° West 426 490 38,600 1,000 Climbing Boston Center
Tue 01:00:50 PM 43.0425 -73.8122 274° West 426 490 39,600 700 Climbing Boston Center
Tue 01:01:50 PM 43.0528 -73.9744 275° West 431 496 40,000 200 Climbing Boston Center
Tue 01:02:50 PM 43.0631 -74.1394 275° West 431 496 40,000  Level Boston Center
Tue 01:03:50 PM 43.0708 -74.3017 274° West 436 502 40,000  Level Boston Center
Tue 01:04:50 PM 43.0806 -74.4611 275° West 436 502 40,000  Level Boston Center
Tue 01:05:50 PM 43.0900 -74.6264 275° West 436 502 40,000  Level Boston Center
Tue 01:06:50 PM 43.0972 -74.7889 274° West 436 502 40,000  Level Boston Center
Tue 01:07:50 PM 43.1064 -74.9514 274° West 436 502 40,000  Level Boston Center
Tue 01:08:50 PM 43.1111 -75.1108 272° West 430 495 40,000  Level Boston Center
Tue 01:09:50 PM 43.1217 -75.2733 275° West 430 495 40,000  Level Boston Center
Tue 01:10:50 PM 43.1283 -75.4189 274° West 430 495 40,000  Level Boston Center
Tue 01:11:50 PM 43.1283 -75.5811 270° West 430 495 40,000  Level Boston Center
Tue 01:12:50 PM 43.1050 -75.7364 258° West 419 482 40,000  Level Boston Center
Tue 01:13:50 PM 43.0797 -75.8914 257° West 424 488 40,000  Level Boston Center
Tue 01:16:09 PM 43.0214 -76.2633 258° West 414 476 40,000  Level Cleveland Center
Tue 01:17:09 PM 42.9961 -76.4214 258° West 426 490 40,000  Level Cleveland Center
Tue 01:18:09 PM 42.9703 -76.5819 258° West 431 496 40,000  Level Cleveland Center
Tue 01:19:09 PM 42.9444 -76.7369 257° West 431 496 40,000  Level Cleveland Center
Tue 01:20:09 PM 42.9183 -76.8972 258° West 436 502 40,000  Level Cleveland Center
Tue 01:21:09 PM 42.8900 -77.0606 257° West 436 502 40,000  Level Cleveland Center
Tue 01:22:09 PM 42.8636 -77.2178 257° West 436 502 40,000  Level Cleveland Center
Tue 01:23:09 PM 42.8347 -77.3808 256° West 436 502 40,000  Level Cleveland Center
Tue 01:24:09 PM 42.8097 -77.5378 258° West 436 502 40,000  Level Cleveland Center
Tue 01:25:09 PM 42.7847 -77.6947 258° West 436 502 40,000  Level Cleveland Center
Tue 01:26:09 PM 42.7556 -77.8686 257° West 436 502 40,000  Level Cleveland Center
Tue 01:27:09 PM 42.7278 -78.0197 256° West 431 496 40,000  Level Cleveland Center
Tue 01:28:09 PM 42.6997 -78.1761 256° West 431 496 40,000  Level Cleveland Center
Tue 01:29:09 PM 42.6717 -78.3353 257° West 431 496 40,000  Level Cleveland Center
Tue 01:30:09 PM 42.6414 -78.4944 256° West 436 502 40,000  Level Cleveland Center
Tue 01:31:09 PM 42.6131 -78.6533 256° West 436 502 40,000  Level Cleveland Center
Tue 01:32:09 PM 42.5861 -78.8094 257° West 436 502 40,000  Level Cleveland Center
Tue 01:33:09 PM 42.5553 -78.9681 255° West 436 502 40,000  Level Cleveland Center
Tue 01:34:09 PM 42.5281 -79.1294 257° West 436 502 40,000  Level Cleveland Center
Tue 01:35:09 PM 42.4967 -79.2906 255° West 436 502 40,000  Level Cleveland Center
Tue 01:36:09 PM 42.4650 -79.4489 255° West 436 502 40,000  Level Cleveland Center
Tue 01:37:09 PM 42.4333 -79.6097 255° West 436 502 40,000  Level Cleveland Center
Tue 01:38:09 PM 42.4031 -79.7706 256° West 436 502 40,000  Level Cleveland Center
Tue 01:39:10 PM 42.3728 -79.9283 255° West 436 502 40,000  Level Cleveland Center
Tue 01:40:10 PM 42.3383 -80.0889 254° West 436 502 40,000  Level Cleveland Center
Tue 01:41:09 PM 42.3075 -80.2492 255° West 436 502 40,000  Level Cleveland Center
Tue 01:42:09 PM 42.2767 -80.4064 255° West 436 502 40,000  Level Cleveland Center
Tue 01:43:09 PM 42.2456 -80.5664 255° West 436 502 40,000  Level Cleveland Center
Tue 01:44:09 PM 42.2142 -80.7289 255° West 442 509 40,000  Level Cleveland Center
Tue 01:45:09 PM 42.1806 -80.8886 254° West 442 509 40,000  Level Cleveland Center
Tue 01:46:09 PM 42.1467 -81.0481 254° West 442 509 40,000 -350 Level Cleveland Center
Tue 01:47:09 PM 42.1144 -81.2100 255° West 442 509 39,300 -800 Descending Cleveland Center
Tue 01:48:09 PM 42.0803 -81.3722 254° West 447 514 38,400 -900 Descending Cleveland Center
Tue 01:49:09 PM 42.0500 -81.5256 255° West 441 507 37,500 -900 Descending Cleveland Center
Tue 01:50:09 PM 42.0153 -81.6786 253° West 435 501 36,600 -744 Descending Cleveland Center
Tue 01:51:10 PM 41.9822 -81.8344 254° West 435 501 36,000 -300 Descending Cleveland Center
Tue 01:52:09 PM 41.9514 -81.9736 253° West 435 501 36,000  Level Cleveland Center
Tue 01:53:09 PM 41.9183 -82.1264 254° West 435 501 36,000  Level Cleveland Center
Tue 01:54:10 PM 41.8850 -82.2789 254° West 435 501 36,000  Level Cleveland Center
Tue 01:55:09 PM 41.8511 -82.4369 254° West 435 501 36,000  Level Cleveland Center
Tue 01:56:10 PM 41.8131 -82.6003 253° West 435 501 36,000  Level Cleveland Center
Tue 01:57:10 PM 41.7789 -82.7522 253° West 430 495 36,000  Level Cleveland Center
Tue 01:58:10 PM 41.7467 -82.9042 254° West 430 495 36,000  Level Cleveland Center
Tue 01:59:09 PM 41.7122 -83.0561 253° West 430 495 36,000  Level Cleveland Center
Tue 02:00:10 PM 41.6778 -83.2047 253° West 430 495 36,000  Level Cleveland Center
Tue 02:01:10 PM 41.6431 -83.3536 253° West 425 489 36,000  Level Cleveland Center
Tue 02:02:09 PM 41.6100 -83.5019 253° West 425 489 36,000  Level Cleveland Center
Tue 02:03:10 PM 41.5750 -83.6475 252° West 420 483 36,000 -560 Level Cleveland Center
Tue 02:05:22 PM 41.5072 -83.9567 254° West 419 482 34,200 -866 Descending Chicago Center
Tue 02:06:24 PM 41.4722 -84.1056 253° West 421 484 33,200 -968 Descending Chicago Center
Tue 02:07:26 PM 41.4656 -84.2567 267° West 417 480 32,200 -1,065 Descending Chicago Center
Tue 02:08:28 PM 41.4739 -84.4386 274° West 412 474 31,000 -1,065 Descending Chicago Center
Tue 02:09:30 PM 41.4792 -84.5919 273° West 414 476 30,000 -484 Descending Chicago Center
Tue 02:10:32 PM 41.4844 -84.7453 273° West 414 476 30,000  Level Chicago Center
Tue 02:11:33 PM 41.4897 -84.8986 273° West 415 478 30,000 -878 Level Chicago Center
Tue 02:12:35 PM 41.4953 -85.0503 273° West 410 472 28,200 -1,887 Descending Chicago Center
Tue 02:13:37 PM 41.4994 -85.1981 272° West 400 460 26,100 -1,839 Descending Chicago Center
Tue 02:14:39 PM 41.5042 -85.3411 273° West 385 443 24,400 -1,355 Descending Chicago Center
Tue 02:15:41 PM 41.5078 -85.4808 272° West 375 432 23,300 -1,016 Descending Chicago Center
Tue 02:16:43 PM 41.5119 -85.6169 272° West 364 419 22,300 -1,561 Descending Chicago Center
Tue 02:17:44 PM 41.5147 -85.7761 271° West 357 411 20,100 -1,951 Descending Chicago Center
Tue 02:18:46 PM 41.5167 -85.9019 271° West 341 392 18,300 -1,742 Descending Chicago Center
Tue 02:19:48 PM 41.5172 -86.0203 270° West 320 368 16,500 -1,694 Descending Chicago Center
Tue 02:20:50 PM 41.5200 -86.1353 272° West 311 358 14,800 -1,645 Descending Chicago Center
Tue 02:21:52 PM 41.5211 -86.2464 271° West 300 345 13,100 -1,548 Descending Chicago Center
Tue 02:22:54 PM 41.5228 -86.3533 271° West 290 334 11,600 -976 Descending Chicago Center
Tue 02:23:55 PM 41.5228 -86.4575 270° West 283 326 11,100 -732 Descending Chicago Center
Tue 02:24:57 PM 41.5217 -86.5864 269° West 287 330 10,100 -484 Descending Chicago Center
Tue 02:25:59 PM 41.5203 -86.6903 269° West 282 325 10,100  Level Chicago Center
Tue 02:27:01 PM 41.5197 -86.7853 270° West 282 325 10,100 -242 Level Chicago Center
Tue 02:28:03 PM 41.5178 -86.9094 269° West 281 323 9,600 -919 Descending Chicago Center
Tue 02:29:05 PM 41.5169 -87.0058 269° West 264 304 8,200 -1,403 Descending Chicago Center
Tue 02:30:07 PM 41.5161 -87.1022 269° West 262 302 6,700 -1,065 Descending Chicago Center
Tue 02:31:09 PM 41.5367 -87.1906 287° West 252 290 6,000 -581 Descending Chicago Center
Tue 02:32:11 PM 41.5658 -87.2778 294° West 258 297 5,500 -484 Descending Chicago Center
Tue 02:33:13 PM 41.5919 -87.3825 288° West 252 290 5,000 -242 Descending Chicago Center
Tue 02:34:15 PM 41.6108 -87.4603 288° West 230 265 5,000 -48 Level Chicago Center
Tue 02:35:17 PM 41.6308 -87.5350 290° West 222 255 4,900 -484 Descending Chicago Center
Tue 02:36:19 PM 41.6747 -87.5989 313° West 239 275 4,000 -973 Descending Chicago Center
Tue 02:37:08 PM 41.7167 -87.6500 318° Northwest 223 257 3,100 -887 Descending Chicago TRACON
Tue 02:38:14 PM 41.7833 -87.6667 349° North 204 235 2,300 -619 Descending Chicago TRACON
Tue 02:39:14 PM 41.8167 -87.6833 340° North 154 177 1,800 -571 Descending Chicago TRACON
Tue 02:40:20 PM 41.8167 -87.7167 270° West 122 140 1,100 -636 Descending Chicago TRACON

Login

Don't have an account? Register now (free) for customized features, flight alerts, and more!